createdAt,value
2022-09-23T00:01:46.975Z,4.90
2022-09-23T00:04:13.617Z,5.00
2022-09-23T00:06:40.874Z,5.00
2022-09-23T00:09:07.554Z,4.90
2022-09-23T00:11:34.183Z,4.90
2022-09-23T00:14:00.867Z,4.90
2022-09-23T00:16:29.155Z,4.90
2022-09-23T00:18:55.952Z,4.90
2022-09-23T00:21:22.666Z,4.90
2022-09-23T00:23:49.738Z,4.90
2022-09-23T00:26:18.877Z,4.90
2022-09-23T00:28:45.931Z,4.80
2022-09-23T00:31:14.589Z,4.80
2022-09-23T00:33:41.531Z,4.70
2022-09-23T00:36:10.993Z,4.70
2022-09-23T00:38:38.446Z,4.70
2022-09-23T00:41:05.640Z,4.60
2022-09-23T00:43:47.095Z,4.60
2022-09-23T00:46:22.004Z,4.50
2022-09-23T00:48:50.846Z,4.40
2022-09-23T00:51:19.765Z,4.40
2022-09-23T00:53:48.717Z,4.40
2022-09-23T00:56:15.652Z,4.40
2022-09-23T00:58:44.770Z,4.50
2022-09-23T01:01:12.577Z,4.50
2022-09-23T01:03:39.525Z,4.50
2022-09-23T01:06:06.571Z,4.50
2022-09-23T01:08:33.231Z,4.50
2022-09-23T01:11:06.588Z,4.50
2022-09-23T01:13:36.224Z,4.50
2022-09-23T01:16:08.537Z,4.50
2022-09-23T01:18:42.837Z,4.40
2022-09-23T01:21:14.480Z,4.50
2022-09-23T01:23:41.449Z,4.50
2022-09-23T01:26:26.434Z,4.40
2022-09-23T01:28:53.099Z,4.40
2022-09-23T01:31:35.748Z,4.40
2022-09-23T01:34:13.672Z,4.40
2022-09-23T01:36:43.104Z,4.40
2022-09-23T01:39:23.936Z,4.30
2022-09-23T01:41:57.392Z,4.30
2022-09-23T01:44:33.427Z,4.30
2022-09-23T01:47:14.263Z,4.20
2022-09-23T01:49:50.226Z,4.20
2022-09-23T01:52:23.060Z,4.20
2022-09-23T01:55:12.765Z,4.10
2022-09-23T01:57:53.274Z,4.10
2022-09-23T02:00:22.330Z,4.10
2022-09-23T02:02:52.309Z,4.10
2022-09-23T02:05:23.816Z,4.10
2022-09-23T02:07:59.897Z,4.00
2022-09-23T02:10:33.036Z,4.00
2022-09-23T02:13:04.229Z,4.00
2022-09-23T02:15:37.384Z,4.00
2022-09-23T02:18:08.764Z,4.00
2022-09-23T02:20:37.571Z,3.90
2022-09-23T02:23:10.236Z,3.90
2022-09-23T02:25:45.174Z,3.90
2022-09-23T02:28:17.746Z,3.90
2022-09-23T02:30:56.176Z,3.80
2022-09-23T02:33:24.658Z,3.80
2022-09-23T02:35:51.306Z,3.80
2022-09-23T02:38:35.032Z,3.80
2022-09-23T02:41:07.561Z,3.70
2022-09-23T02:43:36.572Z,3.70
2022-09-23T02:46:04.827Z,3.70
2022-09-23T02:48:34.528Z,3.70
2022-09-23T02:51:03.645Z,3.60
2022-09-23T02:53:33.778Z,3.60
2022-09-23T02:56:13.153Z,3.50
2022-09-23T02:58:39.813Z,3.50
2022-09-23T03:01:32.615Z,3.50
2022-09-23T03:04:17.663Z,3.50
2022-09-23T03:06:53.249Z,3.50
2022-09-23T03:09:19.863Z,3.50
2022-09-23T03:11:50.573Z,3.50
2022-09-23T03:14:37.720Z,3.50
2022-09-23T03:17:06.949Z,3.40
2022-09-23T03:19:42.313Z,3.40
2022-09-23T03:22:11.686Z,3.50
2022-09-23T03:24:40.052Z,3.50
2022-09-23T03:27:13.534Z,3.50
2022-09-23T03:29:45.618Z,3.50
2022-09-23T03:32:12.994Z,3.40
2022-09-23T03:34:41.334Z,3.40
2022-09-23T03:37:11.262Z,3.40
2022-09-23T03:39:48.108Z,3.40
2022-09-23T03:42:17.213Z,3.40
2022-09-23T03:44:45.630Z,3.50
2022-09-23T03:47:13.800Z,3.40
2022-09-23T03:49:42.455Z,3.40
2022-09-23T03:52:09.085Z,3.30
2022-09-23T03:54:36.077Z,3.30
2022-09-23T03:57:03.107Z,3.30
2022-09-23T03:59:31.027Z,3.30
2022-09-23T04:01:59.610Z,3.20
2022-09-23T04:04:27.864Z,3.20
2022-09-23T04:06:55.660Z,3.20
2022-09-23T04:09:22.822Z,3.20
2022-09-23T04:11:50.220Z,3.20
2022-09-23T04:14:17.890Z,3.20
2022-09-23T04:16:45.010Z,3.10
2022-09-23T04:19:12.104Z,3.10
2022-09-23T04:21:39.306Z,3.10
2022-09-23T04:24:06.074Z,3.10
2022-09-23T04:26:33.475Z,3.20
2022-09-23T04:29:00.366Z,3.00
2022-09-23T04:31:27.834Z,2.90
2022-09-23T04:33:54.856Z,2.90
2022-09-23T04:36:21.770Z,2.90
2022-09-23T04:38:49.112Z,2.80
2022-09-23T04:41:16.489Z,2.90
2022-09-23T04:43:43.171Z,2.80
2022-09-23T04:46:12.171Z,2.80
2022-09-23T04:48:39.423Z,2.80
2022-09-23T04:51:07.176Z,2.70
2022-09-23T04:53:35.171Z,2.80
2022-09-23T04:56:02.717Z,2.80
2022-09-23T04:58:29.352Z,2.80
2022-09-23T05:01:01.725Z,2.90
2022-09-23T05:03:35.840Z,2.90
2022-09-23T05:06:02.581Z,2.80
2022-09-23T05:08:29.710Z,2.80
2022-09-23T05:10:57.130Z,2.80
2022-09-23T05:13:23.807Z,2.70
2022-09-23T05:15:56.714Z,2.70
2022-09-23T05:18:23.423Z,2.80
2022-09-23T05:20:54.518Z,2.90
2022-09-23T05:23:21.873Z,2.90
2022-09-23T05:25:48.543Z,2.90
2022-09-23T05:28:20.077Z,2.80
2022-09-23T05:30:46.811Z,2.80
2022-09-23T05:33:14.010Z,2.80
2022-09-23T05:35:46.532Z,2.90
2022-09-23T05:38:13.184Z,2.90
2022-09-23T05:40:39.866Z,3.00
2022-09-23T05:43:06.633Z,3.10
2022-09-23T05:45:33.333Z,3.10
2022-09-23T05:48:00.000Z,3.10
2022-09-23T05:50:27.023Z,3.10
2022-09-23T05:52:53.866Z,3.10
2022-09-23T05:55:20.495Z,3.10
2022-09-23T05:57:47.124Z,3.20
2022-09-23T06:00:13.835Z,3.20
2022-09-23T06:02:40.666Z,3.20
2022-09-23T06:05:07.466Z,3.20
2022-09-23T06:07:34.104Z,3.30
2022-09-23T06:10:00.727Z,3.30
2022-09-23T06:12:27.384Z,3.30
2022-09-23T06:14:54.327Z,3.30
2022-09-23T06:17:20.973Z,3.30
2022-09-23T06:19:47.664Z,3.40
2022-09-23T06:22:16.893Z,3.40
2022-09-23T06:24:43.555Z,3.40
2022-09-23T06:27:10.318Z,3.50
2022-09-23T06:29:37.058Z,3.50
2022-09-23T06:32:04.725Z,3.50
2022-09-23T06:34:36.578Z,3.60
2022-09-23T06:37:19.236Z,3.70
2022-09-23T06:39:46.842Z,3.70
2022-09-23T06:42:13.517Z,3.80
2022-09-23T06:44:40.354Z,3.80
2022-09-23T06:47:07.242Z,3.80
2022-09-23T06:49:33.969Z,3.90
2022-09-23T06:52:00.950Z,4.00
2022-09-23T06:54:28.941Z,4.10
2022-09-23T06:56:55.587Z,4.20
2022-09-23T06:59:22.399Z,4.30
2022-09-23T07:01:50.613Z,4.40
2022-09-23T07:04:17.416Z,4.50
2022-09-23T07:06:44.048Z,4.60
2022-09-23T07:09:11.118Z,4.70
2022-09-23T07:11:37.869Z,4.80
2022-09-23T07:14:04.703Z,4.90
2022-09-23T07:16:33.082Z,5.10
2022-09-23T07:18:59.826Z,5.10
2022-09-23T07:21:27.858Z,5.30
2022-09-23T07:23:58.103Z,5.40
2022-09-23T07:26:25.188Z,5.50
2022-09-23T07:28:56.559Z,5.50
2022-09-23T07:31:36.208Z,5.70
2022-09-23T07:34:05.432Z,5.80
2022-09-23T07:36:32.889Z,5.90
2022-09-23T07:39:03.654Z,6.00
2022-09-23T07:41:31.337Z,6.20
2022-09-23T07:44:01.473Z,6.30
2022-09-23T07:46:29.570Z,6.50
2022-09-23T07:48:56.309Z,6.60
2022-09-23T07:51:25.414Z,6.80
2022-09-23T07:53:53.339Z,6.90
2022-09-23T07:56:20.595Z,7.00
2022-09-23T07:59:04.502Z,7.10
2022-09-23T08:01:33.045Z,7.20
2022-09-23T08:04:01.225Z,7.40
2022-09-23T08:06:28.032Z,7.50
2022-09-23T08:08:57.482Z,7.60
2022-09-23T08:11:24.976Z,7.70
2022-09-23T08:13:52.161Z,7.80
2022-09-23T08:16:18.983Z,7.90
2022-09-23T08:18:45.865Z,8.00
2022-09-23T08:21:12.787Z,8.10
2022-09-23T08:23:39.462Z,8.30
2022-09-23T08:26:11.771Z,8.40
2022-09-23T08:28:44.136Z,8.50
2022-09-23T08:31:12.444Z,8.70
2022-09-23T08:33:39.315Z,8.70
2022-09-23T08:36:06.614Z,8.80
2022-09-23T08:38:33.569Z,8.80
2022-09-23T08:41:23.565Z,9.00
2022-09-23T08:43:53.278Z,9.00
2022-09-23T08:46:26.047Z,9.20
2022-09-23T08:48:53.236Z,9.20
2022-09-23T08:51:23.672Z,9.30
2022-09-23T08:53:50.350Z,9.30
2022-09-23T08:56:18.047Z,9.50
2022-09-23T08:58:54.466Z,9.60
2022-09-23T09:01:21.043Z,9.70
2022-09-23T09:03:47.871Z,9.80
2022-09-23T09:06:20.307Z,9.90
2022-09-23T09:08:52.258Z,10.00
2022-09-23T09:11:19.654Z,10.00
2022-09-23T09:13:53.342Z,10.10
2022-09-23T09:16:31.699Z,10.20
2022-09-23T09:19:07.662Z,10.30
2022-09-23T09:21:37.498Z,10.30
2022-09-23T09:24:09.783Z,10.40
2022-09-23T09:26:38.121Z,10.40
2022-09-23T09:29:23.879Z,10.60
2022-09-23T09:31:57.575Z,10.60
2022-09-23T09:34:24.262Z,10.70
2022-09-23T09:37:06.727Z,10.80
2022-09-23T09:39:34.984Z,10.80
2022-09-23T09:42:02.181Z,10.90
2022-09-23T09:44:43.460Z,10.90
2022-09-23T09:47:16.383Z,11.00
2022-09-23T09:49:48.973Z,11.10
2022-09-23T09:52:19.220Z,11.10
2022-09-23T09:54:45.805Z,11.20
2022-09-23T09:57:35.381Z,11.20
2022-09-23T10:00:18.915Z,11.30
2022-09-23T10:02:46.635Z,11.30
2022-09-23T10:05:42.940Z,11.40
2022-09-23T10:08:19.253Z,11.50
2022-09-23T10:10:59.487Z,11.70
2022-09-23T10:13:29.379Z,11.70
2022-09-23T10:15:56.867Z,11.80
2022-09-23T10:18:34.574Z,11.80
2022-09-23T10:21:26.882Z,11.90
2022-09-23T10:23:57.987Z,12.10
2022-09-23T10:26:31.145Z,12.10
2022-09-23T10:29:01.285Z,12.20
2022-09-23T10:31:30.167Z,12.30
2022-09-23T10:34:00.844Z,12.40
2022-09-23T10:36:28.858Z,12.40
2022-09-23T10:39:17.385Z,12.40
2022-09-23T10:42:07.613Z,12.50
2022-09-23T10:44:58.182Z,12.60
2022-09-23T10:47:34.504Z,12.60
2022-09-23T10:50:04.919Z,12.60
2022-09-23T10:52:43.860Z,12.60
2022-09-23T10:55:18.388Z,12.60
2022-09-23T10:57:45.047Z,12.70
2022-09-23T11:00:30.632Z,12.70
2022-09-23T11:03:17.530Z,12.80
2022-09-23T11:06:00.775Z,12.80
2022-09-23T11:08:46.240Z,12.90
2022-09-23T11:11:23.582Z,12.90
2022-09-23T11:13:54.794Z,13.00
2022-09-23T11:16:21.609Z,13.10
2022-09-23T11:19:07.284Z,13.10
2022-09-23T11:21:44.211Z,13.20
2022-09-23T11:24:29.299Z,13.50
2022-09-23T11:26:59.819Z,13.70
2022-09-23T11:29:36.398Z,13.80
2022-09-23T11:32:03.129Z,13.80
2022-09-23T11:34:54.942Z,13.90
2022-09-23T11:37:26.448Z,14.00
2022-09-23T11:39:53.358Z,14.20
2022-09-23T11:42:25.458Z,14.20
2022-09-23T11:45:06.984Z,14.30
2022-09-23T11:47:45.704Z,14.40
2022-09-23T11:50:27.988Z,14.50
2022-09-23T11:53:05.285Z,14.50
2022-09-23T11:55:34.807Z,14.60
2022-09-23T11:58:02.045Z,14.60
2022-09-23T12:00:34.156Z,14.60
2022-09-23T12:03:22.921Z,14.70
2022-09-23T12:05:58.477Z,15.00
2022-09-23T12:08:29.297Z,15.10
2022-09-23T12:10:59.050Z,15.00
2022-09-23T12:13:48.258Z,14.80
2022-09-23T12:16:33.227Z,15.00
2022-09-23T12:19:03.395Z,15.30
2022-09-23T12:21:49.078Z,15.40
2022-09-23T12:24:19.160Z,15.40
2022-09-23T12:26:49.540Z,15.60
2022-09-23T12:29:16.445Z,15.60
2022-09-23T12:31:46.775Z,15.50
2022-09-23T12:34:28.936Z,15.40
2022-09-23T12:37:02.240Z,15.60
2022-09-23T12:39:30.984Z,15.70
2022-09-23T12:42:00.557Z,15.60
2022-09-23T12:44:41.850Z,15.60
2022-09-23T12:47:14.733Z,15.60
2022-09-23T12:49:42.471Z,15.60
2022-09-23T12:52:12.232Z,15.60
2022-09-23T12:54:39.990Z,15.70
2022-09-23T12:57:13.491Z,15.90
2022-09-23T12:59:54.417Z,15.90
2022-09-23T13:02:28.869Z,16.00
2022-09-23T13:05:34.346Z,16.10
2022-09-23T13:08:15.876Z,16.10
2022-09-23T13:10:52.121Z,16.10
2022-09-23T13:13:21.910Z,16.00
2022-09-23T13:15:48.895Z,16.30
2022-09-23T13:18:25.217Z,16.20
2022-09-23T13:20:52.808Z,16.20
2022-09-23T13:23:33.071Z,16.20
2022-09-23T13:26:00.960Z,16.10
2022-09-23T13:28:37.169Z,16.40
2022-09-23T13:31:13.719Z,16.50
2022-09-23T13:33:59.649Z,16.70
2022-09-23T13:36:27.036Z,16.60
2022-09-23T13:39:13.863Z,16.50
2022-09-23T13:41:42.052Z,16.50
2022-09-23T13:44:13.957Z,16.40
2022-09-23T13:46:45.925Z,16.40
2022-09-23T13:49:26.648Z,16.40
2022-09-23T13:51:54.178Z,16.50
2022-09-23T13:54:28.896Z,16.60
2022-09-23T13:56:58.419Z,16.50
2022-09-23T13:59:26.605Z,16.50
2022-09-23T14:02:25.951Z,16.50
2022-09-23T14:04:55.702Z,16.60
2022-09-23T14:07:22.371Z,16.70
2022-09-23T14:09:50.137Z,16.80
2022-09-23T14:12:22.023Z,16.70
2022-09-23T14:14:50.604Z,16.70
2022-09-23T14:17:19.326Z,16.70
2022-09-23T14:19:46.408Z,16.60
2022-09-23T14:22:24.252Z,16.60
2022-09-23T14:24:51.437Z,16.60
2022-09-23T14:27:20.532Z,16.60
2022-09-23T14:29:49.314Z,16.60
2022-09-23T14:32:21.159Z,16.60
2022-09-23T14:34:48.468Z,16.50
2022-09-23T14:37:33.920Z,16.60
2022-09-23T14:40:00.895Z,16.50
2022-09-23T14:42:38.520Z,16.60
2022-09-23T14:45:05.519Z,16.60
2022-09-23T14:47:35.105Z,16.80
2022-09-23T14:50:20.500Z,16.90
2022-09-23T14:52:50.380Z,16.80
2022-09-23T14:55:17.772Z,16.70
2022-09-23T14:57:45.183Z,16.60
2022-09-23T15:00:19.428Z,16.60
2022-09-23T15:02:58.046Z,16.50
2022-09-23T15:05:32.028Z,16.40
2022-09-23T15:08:01.220Z,16.40
2022-09-23T15:10:30.172Z,16.40
2022-09-23T15:13:03.857Z,16.30
2022-09-23T15:15:30.543Z,16.30
2022-09-23T15:18:03.469Z,16.20
2022-09-23T15:20:30.217Z,16.10
2022-09-23T15:22:56.984Z,16.00
2022-09-23T15:25:30.334Z,16.00
2022-09-23T15:27:58.318Z,16.00
2022-09-23T15:30:24.984Z,16.00
2022-09-23T15:32:51.665Z,16.00
2022-09-23T15:35:19.759Z,16.00
2022-09-23T15:37:47.158Z,16.00
2022-09-23T15:40:21.501Z,16.10
2022-09-23T15:42:51.562Z,16.50
2022-09-23T15:45:21.079Z,16.90
2022-09-23T15:47:49.590Z,16.90
2022-09-23T15:50:16.915Z,16.70
2022-09-23T15:52:45.165Z,16.50
2022-09-23T15:55:15.955Z,16.30
2022-09-23T15:57:42.576Z,16.10
2022-09-23T16:00:12.354Z,15.90
2022-09-23T16:02:39.626Z,15.70
2022-09-23T16:05:07.706Z,15.60
2022-09-23T16:07:34.398Z,15.50
2022-09-23T16:10:01.030Z,15.40
2022-09-23T16:12:27.857Z,15.30
2022-09-23T16:14:54.580Z,15.10
2022-09-23T16:17:21.403Z,15.00
2022-09-23T16:19:48.049Z,15.00
2022-09-23T16:22:15.274Z,14.90
2022-09-23T16:24:42.019Z,14.80
2022-09-23T16:27:11.576Z,14.70
2022-09-23T16:29:38.238Z,14.60
2022-09-23T16:32:04.971Z,14.50
2022-09-23T16:34:32.214Z,14.40
2022-09-23T16:36:58.928Z,14.30
2022-09-23T16:39:25.615Z,14.20
2022-09-23T16:41:52.686Z,14.10
2022-09-23T16:44:19.623Z,14.00
2022-09-23T16:46:46.246Z,13.90
2022-09-23T16:49:16.203Z,13.70
2022-09-23T16:51:42.849Z,13.60
2022-09-23T16:54:10.950Z,13.50
2022-09-23T16:56:38.694Z,13.40
2022-09-23T16:59:06.215Z,13.40
2022-09-23T17:01:51.688Z,13.30
2022-09-23T17:04:19.395Z,13.10
2022-09-23T17:06:49.218Z,13.00
2022-09-23T17:09:17.219Z,12.90
2022-09-23T17:11:46.976Z,12.90
2022-09-23T17:14:14.246Z,12.80
2022-09-23T17:16:41.044Z,12.70
2022-09-23T17:19:08.738Z,12.60
2022-09-23T17:21:35.610Z,12.50
2022-09-23T17:24:02.485Z,12.50
2022-09-23T17:26:29.178Z,12.40
2022-09-23T17:28:56.564Z,12.40
2022-09-23T17:31:23.818Z,12.30
2022-09-23T17:33:51.152Z,12.20
2022-09-23T17:36:17.811Z,12.10
2022-09-23T17:38:48.338Z,12.10
2022-09-23T17:41:15.695Z,12.00
2022-09-23T17:43:42.418Z,12.00
2022-09-23T17:46:10.766Z,11.80
2022-09-23T17:48:38.323Z,11.80
2022-09-23T17:51:11.109Z,11.80
2022-09-23T17:53:38.938Z,11.70
2022-09-23T17:56:06.997Z,11.60
2022-09-23T17:58:34.965Z,11.60
2022-09-23T18:01:01.921Z,11.50
2022-09-23T18:03:29.579Z,11.50
2022-09-23T18:06:05.404Z,11.40
2022-09-23T18:08:32.099Z,11.40
2022-09-23T18:10:58.717Z,11.30
2022-09-23T18:13:25.349Z,11.20
2022-09-23T18:15:52.258Z,11.20
2022-09-23T18:18:19.184Z,11.10
2022-09-23T18:20:46.097Z,11.10
2022-09-23T18:23:12.975Z,11.00
2022-09-23T18:25:40.197Z,11.00
2022-09-23T18:28:06.976Z,10.90
2022-09-23T18:30:33.735Z,10.90
2022-09-23T18:33:01.624Z,10.80
2022-09-23T18:35:28.575Z,10.80
2022-09-23T18:37:56.007Z,10.80
2022-09-23T18:40:22.779Z,10.70
2022-09-23T18:42:50.277Z,10.70
2022-09-23T18:45:16.963Z,10.60
2022-09-23T18:48:02.180Z,10.60
2022-09-23T18:50:42.995Z,10.50
2022-09-23T18:53:10.322Z,10.50
2022-09-23T18:55:37.389Z,10.40
2022-09-23T18:58:07.365Z,10.40
2022-09-23T19:00:34.724Z,10.30
2022-09-23T19:03:01.930Z,10.30
2022-09-23T19:05:28.902Z,10.30
2022-09-23T19:07:55.566Z,10.20
2022-09-23T19:10:22.343Z,10.20
2022-09-23T19:12:49.244Z,10.10
2022-09-23T19:15:15.940Z,10.10
2022-09-23T19:17:42.745Z,10.10
2022-09-23T19:20:10.119Z,10.10
2022-09-23T19:22:36.845Z,10.00
2022-09-23T19:25:03.865Z,10.00
2022-09-23T19:27:30.563Z,10.00
2022-09-23T19:29:57.775Z,10.00
2022-09-23T19:32:27.070Z,10.00
2022-09-23T19:34:53.768Z,9.90
2022-09-23T19:37:21.100Z,9.90
2022-09-23T19:39:48.273Z,9.80
2022-09-23T19:42:14.981Z,9.80
2022-09-23T19:44:41.660Z,9.70
2022-09-23T19:47:15.216Z,9.60
2022-09-23T19:49:42.043Z,9.60
2022-09-23T19:52:08.695Z,9.60
2022-09-23T19:54:35.867Z,9.60
2022-09-23T19:57:02.743Z,9.50
2022-09-23T19:59:29.613Z,9.50
2022-09-23T20:01:56.348Z,9.50
2022-09-23T20:04:23.170Z,9.50
2022-09-23T20:06:49.830Z,9.40
2022-09-23T20:09:16.577Z,9.40
2022-09-23T20:11:44.235Z,9.50
2022-09-23T20:14:11.053Z,9.40
2022-09-23T20:16:38.003Z,9.40
2022-09-23T20:19:05.640Z,9.40
2022-09-23T20:21:33.503Z,9.40
2022-09-23T20:24:00.977Z,9.30
2022-09-23T20:26:46.581Z,9.30
2022-09-23T20:29:13.240Z,9.30
2022-09-23T20:31:42.997Z,9.30
2022-09-23T20:34:10.501Z,9.30
2022-09-23T20:36:39.247Z,9.20
2022-09-23T20:39:06.151Z,9.20
2022-09-23T20:41:36.748Z,9.20
2022-09-23T20:44:06.225Z,9.20
2022-09-23T20:46:33.298Z,9.20
2022-09-23T20:49:00.072Z,9.20
2022-09-23T20:51:26.812Z,9.20
2022-09-23T20:53:53.455Z,9.10
2022-09-23T20:56:20.775Z,9.10
2022-09-23T20:58:48.558Z,9.00
2022-09-23T21:01:15.742Z,9.00
2022-09-23T21:03:44.557Z,8.90
2022-09-23T21:06:12.524Z,8.90
2022-09-23T21:08:39.428Z,8.90
2022-09-23T21:11:08.060Z,8.90
2022-09-23T21:13:34.833Z,8.90
2022-09-23T21:16:04.742Z,8.90
2022-09-23T21:18:31.624Z,8.90
2022-09-23T21:20:59.248Z,8.90
2022-09-23T21:23:27.266Z,8.80
2022-09-23T21:26:01.503Z,8.80
2022-09-23T21:28:32.133Z,8.70
2022-09-23T21:30:59.723Z,8.70
2022-09-23T21:33:26.741Z,8.70
2022-09-23T21:35:54.181Z,8.70
2022-09-23T21:38:21.096Z,8.70
2022-09-23T21:40:56.962Z,8.70
2022-09-23T21:43:27.684Z,8.60
2022-09-23T21:45:56.940Z,8.60
2022-09-23T21:48:24.331Z,8.50
2022-09-23T21:50:55.264Z,8.50
2022-09-23T21:53:23.683Z,8.50
2022-09-23T21:55:50.334Z,8.50
2022-09-23T21:58:19.729Z,8.50
2022-09-23T22:00:46.535Z,8.50
2022-09-23T22:03:13.290Z,8.40
2022-09-23T22:05:43.241Z,8.50
2022-09-23T22:08:10.216Z,8.50
2022-09-23T22:10:37.315Z,8.50
2022-09-23T22:13:06.274Z,8.50
2022-09-23T22:15:36.997Z,8.50
2022-09-23T22:18:05.311Z,8.50
2022-09-23T22:20:33.816Z,8.50
2022-09-23T22:23:00.588Z,8.50
2022-09-23T22:25:28.740Z,8.50
2022-09-23T22:28:14.117Z,8.50
2022-09-23T22:30:59.245Z,8.50
2022-09-23T22:33:25.944Z,8.50
2022-09-23T22:35:52.748Z,8.50
2022-09-23T22:38:19.529Z,8.50
2022-09-23T22:40:46.262Z,8.50
2022-09-23T22:43:13.732Z,8.40
2022-09-23T22:45:48.192Z,8.40
2022-09-23T22:48:14.825Z,8.40
2022-09-23T22:50:41.825Z,8.50
2022-09-23T22:53:11.091Z,8.50
2022-09-23T22:55:37.871Z,8.50
2022-09-23T22:58:27.669Z,8.50
2022-09-23T23:00:55.760Z,8.50
2022-09-23T23:03:23.446Z,8.60
2022-09-23T23:05:51.630Z,8.60
2022-09-23T23:08:18.297Z,8.60
2022-09-23T23:10:44.956Z,8.60
2022-09-23T23:13:11.606Z,8.60
2022-09-23T23:15:38.689Z,8.60
2022-09-23T23:18:05.842Z,8.60
2022-09-23T23:20:32.673Z,8.60
2022-09-23T23:23:02.585Z,8.60
2022-09-23T23:25:29.408Z,8.60
2022-09-23T23:27:56.419Z,8.60
2022-09-23T23:30:23.603Z,8.50
2022-09-23T23:32:50.324Z,8.50
2022-09-23T23:35:17.682Z,8.50
2022-09-23T23:37:44.536Z,8.50
2022-09-23T23:40:11.286Z,8.50
2022-09-23T23:42:37.977Z,8.50
2022-09-23T23:45:04.851Z,8.40
2022-09-23T23:47:31.493Z,8.50
2022-09-23T23:50:04.342Z,8.50
2022-09-23T23:52:31.048Z,8.50
2022-09-23T23:54:57.771Z,8.50
2022-09-23T23:57:24.532Z,8.50
2022-09-23T23:59:52.271Z,8.50
